sensor_id;sensor_type;location;lat;lon;timestamp;P1;durP1;ratioP1;P2;durP2;ratioP2
4232;SDS011;2130;48.472;11.934;2022-09-09T00:01:37;64.53;;;4.03;;
4232;SDS011;2130;48.472;11.934;2022-09-09T00:04:12;69.97;;;3.87;;
4232;SDS011;2130;48.472;11.934;2022-09-09T00:06:43;66.20;;;4.33;;
4232;SDS011;2130;48.472;11.934;2022-09-09T00:09:15;65.67;;;4.23;;
4232;SDS011;2130;48.472;11.934;2022-09-09T00:11:47;66.70;;;4.90;;
4232;SDS011;2130;48.472;11.934;2022-09-09T00:14:20;65.70;;;4.00;;
4232;SDS011;2130;48.472;11.934;2022-09-09T00:16:52;65.90;;;4.40;;
4232;SDS011;2130;48.472;11.934;2022-09-09T00:19:27;64.90;;;3.97;;
4232;SDS011;2130;48.472;11.934;2022-09-09T00:22:02;66.17;;;4.80;;
4232;SDS011;2130;48.472;11.934;2022-09-09T00:24:37;66.23;;;4.37;;
4232;SDS011;2130;48.472;11.934;2022-09-09T00:27:08;66.43;;;4.87;;
4232;SDS011;2130;48.472;11.934;2022-09-09T00:29:42;65.33;;;4.47;;
4232;SDS011;2130;48.472;11.934;2022-09-09T00:32:13;68.17;;;4.50;;
4232;SDS011;2130;48.472;11.934;2022-09-09T00:34:47;66.37;;;4.60;;
4232;SDS011;2130;48.472;11.934;2022-09-09T00:37:16;68.87;;;5.33;;
4232;SDS011;2130;48.472;11.934;2022-09-09T00:39:46;67.17;;;5.33;;
4232;SDS011;2130;48.472;11.934;2022-09-09T00:42:17;67.47;;;5.40;;
4232;SDS011;2130;48.472;11.934;2022-09-09T00:44:52;65.27;;;4.40;;
4232;SDS011;2130;48.472;11.934;2022-09-09T00:47:28;65.00;;;4.10;;
4232;SDS011;2130;48.472;11.934;2022-09-09T00:50:09;65.70;;;4.13;;
4232;SDS011;2130;48.472;11.934;2022-09-09T00:52:44;67.50;;;3.80;;
4232;SDS011;2130;48.472;11.934;2022-09-09T00:55:15;65.70;;;4.20;;
4232;SDS011;2130;48.472;11.934;2022-09-09T00:57:50;64.20;;;3.53;;
4232;SDS011;2130;48.472;11.934;2022-09-09T01:00:21;65.40;;;3.57;;
4232;SDS011;2130;48.472;11.934;2022-09-09T01:02:59;64.60;;;3.97;;
4232;SDS011;2130;48.472;11.934;2022-09-09T01:05:35;64.87;;;4.00;;
4232;SDS011;2130;48.472;11.934;2022-09-09T01:08:11;65.63;;;4.20;;
4232;SDS011;2130;48.472;11.934;2022-09-09T01:10:47;65.50;;;4.60;;
4232;SDS011;2130;48.472;11.934;2022-09-09T01:13:25;64.43;;;3.80;;
4232;SDS011;2130;48.472;11.934;2022-09-09T01:16:00;68.10;;;3.67;;
4232;SDS011;2130;48.472;11.934;2022-09-09T01:18:33;64.20;;;3.87;;
4232;SDS011;2130;48.472;11.934;2022-09-09T01:21:04;64.33;;;3.80;;
4232;SDS011;2130;48.472;11.934;2022-09-09T01:23:40;64.80;;;4.07;;
4232;SDS011;2130;48.472;11.934;2022-09-09T01:26:37;65.20;;;4.13;;
4232;SDS011;2130;48.472;11.934;2022-09-09T01:29:13;65.30;;;4.27;;
4232;SDS011;2130;48.472;11.934;2022-09-09T01:31:51;64.17;;;3.53;;
4232;SDS011;2130;48.472;11.934;2022-09-09T01:34:22;64.97;;;3.87;;
4232;SDS011;2130;48.472;11.934;2022-09-09T01:36:53;64.67;;;4.00;;
4232;SDS011;2130;48.472;11.934;2022-09-09T01:39:26;65.37;;;4.20;;
4232;SDS011;2130;48.472;11.934;2022-09-09T01:42:03;65.00;;;4.27;;
4232;SDS011;2130;48.472;11.934;2022-09-09T01:44:33;64.90;;;3.90;;
4232;SDS011;2130;48.472;11.934;2022-09-09T01:47:03;65.47;;;4.30;;
4232;SDS011;2130;48.472;11.934;2022-09-09T01:49:32;65.07;;;4.10;;
4232;SDS011;2130;48.472;11.934;2022-09-09T01:52:07;64.90;;;3.90;;
4232;SDS011;2130;48.472;11.934;2022-09-09T01:54:37;65.77;;;3.70;;
4232;SDS011;2130;48.472;11.934;2022-09-09T01:57:14;65.30;;;4.27;;
4232;SDS011;2130;48.472;11.934;2022-09-09T01:59:52;66.40;;;4.67;;
4232;SDS011;2130;48.472;11.934;2022-09-09T02:02:29;66.30;;;5.57;;
4232;SDS011;2130;48.472;11.934;2022-09-09T02:05:11;65.70;;;4.67;;
4232;SDS011;2130;48.472;11.934;2022-09-09T02:07:47;67.30;;;5.87;;
4232;SDS011;2130;48.472;11.934;2022-09-09T02:10:28;67.30;;;5.30;;
4232;SDS011;2130;48.472;11.934;2022-09-09T02:13:14;66.57;;;5.60;;
4232;SDS011;2130;48.472;11.934;2022-09-09T02:15:45;69.17;;;5.40;;
4232;SDS011;2130;48.472;11.934;2022-09-09T02:18:17;66.40;;;5.17;;
4232;SDS011;2130;48.472;11.934;2022-09-09T02:20:50;66.50;;;5.70;;
4232;SDS011;2130;48.472;11.934;2022-09-09T02:23:19;66.17;;;4.63;;
4232;SDS011;2130;48.472;11.934;2022-09-09T02:25:51;65.47;;;4.77;;
4232;SDS011;2130;48.472;11.934;2022-09-09T02:28:24;66.47;;;5.63;;
4232;SDS011;2130;48.472;11.934;2022-09-09T02:30:54;66.30;;;5.30;;
4232;SDS011;2130;48.472;11.934;2022-09-09T02:33:30;66.47;;;5.40;;
4232;SDS011;2130;48.472;11.934;2022-09-09T02:36:02;67.90;;;7.00;;
4232;SDS011;2130;48.472;11.934;2022-09-09T02:38:34;68.07;;;6.53;;
4232;SDS011;2130;48.472;11.934;2022-09-09T02:41:10;68.97;;;7.80;;
4232;SDS011;2130;48.472;11.934;2022-09-09T02:43:40;69.07;;;7.17;;
4232;SDS011;2130;48.472;11.934;2022-09-09T02:46:16;70.17;;;8.40;;
4232;SDS011;2130;48.472;11.934;2022-09-09T02:48:58;68.23;;;6.70;;
4232;SDS011;2130;48.472;11.934;2022-09-09T02:51:35;67.40;;;6.20;;
4232;SDS011;2130;48.472;11.934;2022-09-09T02:54:10;71.70;;;7.37;;
4232;SDS011;2130;48.472;11.934;2022-09-09T02:56:45;67.97;;;6.57;;
4232;SDS011;2130;48.472;11.934;2022-09-09T02:59:20;71.10;;;8.17;;
4232;SDS011;2130;48.472;11.934;2022-09-09T03:01:48;71.67;;;8.77;;
4232;SDS011;2130;48.472;11.934;2022-09-09T03:04:17;70.37;;;8.50;;
4232;SDS011;2130;48.472;11.934;2022-09-09T03:06:45;70.30;;;8.50;;
4232;SDS011;2130;48.472;11.934;2022-09-09T03:09:18;70.07;;;9.10;;
4232;SDS011;2130;48.472;11.934;2022-09-09T03:11:47;69.00;;;8.20;;
4232;SDS011;2130;48.472;11.934;2022-09-09T03:14:16;69.07;;;7.90;;
4232;SDS011;2130;48.472;11.934;2022-09-09T03:16:50;70.47;;;7.60;;
4232;SDS011;2130;48.472;11.934;2022-09-09T03:19:18;70.77;;;8.77;;
4232;SDS011;2130;48.472;11.934;2022-09-09T03:21:48;67.40;;;6.50;;
4232;SDS011;2130;48.472;11.934;2022-09-09T03:24:16;69.80;;;6.70;;
4232;SDS011;2130;48.472;11.934;2022-09-09T03:26:45;69.20;;;6.30;;
4232;SDS011;2130;48.472;11.934;2022-09-09T03:29:16;69.07;;;6.23;;
4232;SDS011;2130;48.472;11.934;2022-09-09T03:31:44;68.30;;;6.67;;
4232;SDS011;2130;48.472;11.934;2022-09-09T03:34:15;68.87;;;7.13;;
4232;SDS011;2130;48.472;11.934;2022-09-09T03:36:43;67.50;;;6.00;;
4232;SDS011;2130;48.472;11.934;2022-09-09T03:39:11;72.13;;;5.77;;
4232;SDS011;2130;48.472;11.934;2022-09-09T03:41:42;67.70;;;5.67;;
4232;SDS011;2130;48.472;11.934;2022-09-09T03:44:14;67.00;;;5.00;;
4232;SDS011;2130;48.472;11.934;2022-09-09T03:46:42;66.50;;;5.40;;
4232;SDS011;2130;48.472;11.934;2022-09-09T03:49:10;68.70;;;5.60;;
4232;SDS011;2130;48.472;11.934;2022-09-09T03:51:40;67.50;;;5.97;;
4232;SDS011;2130;48.472;11.934;2022-09-09T03:54:11;67.47;;;5.67;;
4232;SDS011;2130;48.472;11.934;2022-09-09T03:56:39;66.70;;;5.80;;
4232;SDS011;2130;48.472;11.934;2022-09-09T03:59:11;67.20;;;5.70;;
4232;SDS011;2130;48.472;11.934;2022-09-09T04:01:41;71.73;;;6.53;;
4232;SDS011;2130;48.472;11.934;2022-09-09T04:04:09;67.40;;;6.87;;
4232;SDS011;2130;48.472;11.934;2022-09-09T04:06:39;68.03;;;7.30;;
4232;SDS011;2130;48.472;11.934;2022-09-09T04:09:07;68.30;;;7.67;;
4232;SDS011;2130;48.472;11.934;2022-09-09T04:11:36;69.70;;;8.83;;
4232;SDS011;2130;48.472;11.934;2022-09-09T04:14:04;70.07;;;9.60;;
4232;SDS011;2130;48.472;11.934;2022-09-09T04:16:34;69.60;;;9.03;;
4232;SDS011;2130;48.472;11.934;2022-09-09T04:19:04;69.97;;;8.97;;
4232;SDS011;2130;48.472;11.934;2022-09-09T04:21:34;69.13;;;9.83;;
4232;SDS011;2130;48.472;11.934;2022-09-09T04:24:04;68.97;;;8.30;;
4232;SDS011;2130;48.472;11.934;2022-09-09T04:26:32;70.57;;;8.97;;
4232;SDS011;2130;48.472;11.934;2022-09-09T04:29:01;71.37;;;9.77;;
4232;SDS011;2130;48.472;11.934;2022-09-09T04:31:29;70.70;;;8.77;;
4232;SDS011;2130;48.472;11.934;2022-09-09T04:33:57;71.73;;;9.27;;
4232;SDS011;2130;48.472;11.934;2022-09-09T04:36:28;72.10;;;11.67;;
4232;SDS011;2130;48.472;11.934;2022-09-09T04:38:59;68.77;;;8.63;;
4232;SDS011;2130;48.472;11.934;2022-09-09T04:41:29;70.77;;;8.53;;
4232;SDS011;2130;48.472;11.934;2022-09-09T04:43:58;71.83;;;12.27;;
4232;SDS011;2130;48.472;11.934;2022-09-09T04:46:27;73.30;;;11.13;;
4232;SDS011;2130;48.472;11.934;2022-09-09T04:48:56;71.27;;;9.47;;
4232;SDS011;2130;48.472;11.934;2022-09-09T04:51:28;73.10;;;11.10;;
4232;SDS011;2130;48.472;11.934;2022-09-09T04:53:58;71.07;;;9.37;;
4232;SDS011;2130;48.472;11.934;2022-09-09T04:56:26;71.00;;;9.33;;
4232;SDS011;2130;48.472;11.934;2022-09-09T04:58:58;71.60;;;9.97;;
4232;SDS011;2130;48.472;11.934;2022-09-09T05:01:41;70.00;;;9.47;;
4232;SDS011;2130;48.472;11.934;2022-09-09T05:04:10;69.30;;;8.80;;
4232;SDS011;2130;48.472;11.934;2022-09-09T05:06:39;77.90;;;10.60;;
4232;SDS011;2130;48.472;11.934;2022-09-09T05:09:07;71.77;;;10.10;;
4232;SDS011;2130;48.472;11.934;2022-09-09T05:11:35;71.30;;;9.60;;
4232;SDS011;2130;48.472;11.934;2022-09-09T05:14:15;71.53;;;8.83;;
4232;SDS011;2130;48.472;11.934;2022-09-09T05:16:44;69.27;;;9.17;;
4232;SDS011;2130;48.472;11.934;2022-09-09T05:19:13;71.30;;;9.10;;
4232;SDS011;2130;48.472;11.934;2022-09-09T05:21:47;70.80;;;10.47;;
4232;SDS011;2130;48.472;11.934;2022-09-09T05:24:18;71.87;;;9.67;;
4232;SDS011;2130;48.472;11.934;2022-09-09T05:26:49;74.20;;;12.40;;
4232;SDS011;2130;48.472;11.934;2022-09-09T05:29:18;73.13;;;10.97;;
4232;SDS011;2130;48.472;11.934;2022-09-09T05:31:48;71.70;;;10.27;;
4232;SDS011;2130;48.472;11.934;2022-09-09T05:34:19;73.73;;;10.57;;
4232;SDS011;2130;48.472;11.934;2022-09-09T05:36:49;74.20;;;10.40;;
4232;SDS011;2130;48.472;11.934;2022-09-09T05:39:19;73.87;;;10.80;;
4232;SDS011;2130;48.472;11.934;2022-09-09T05:41:47;72.20;;;9.13;;
4232;SDS011;2130;48.472;11.934;2022-09-09T05:44:16;71.60;;;9.83;;
4232;SDS011;2130;48.472;11.934;2022-09-09T05:46:45;73.07;;;10.40;;
4232;SDS011;2130;48.472;11.934;2022-09-09T05:49:14;73.00;;;10.73;;
4232;SDS011;2130;48.472;11.934;2022-09-09T05:51:43;70.87;;;9.37;;
4232;SDS011;2130;48.472;11.934;2022-09-09T05:54:13;70.67;;;10.13;;
4232;SDS011;2130;48.472;11.934;2022-09-09T05:56:46;72.63;;;8.90;;
4232;SDS011;2130;48.472;11.934;2022-09-09T05:59:18;72.27;;;10.30;;
4232;SDS011;2130;48.472;11.934;2022-09-09T06:01:47;72.80;;;10.97;;
4232;SDS011;2130;48.472;11.934;2022-09-09T06:04:24;72.37;;;10.43;;
4232;SDS011;2130;48.472;11.934;2022-09-09T06:06:52;73.97;;;12.90;;
4232;SDS011;2130;48.472;11.934;2022-09-09T06:09:21;73.20;;;11.47;;
4232;SDS011;2130;48.472;11.934;2022-09-09T06:11:49;74.17;;;11.77;;
4232;SDS011;2130;48.472;11.934;2022-09-09T06:14:20;75.50;;;10.07;;
4232;SDS011;2130;48.472;11.934;2022-09-09T06:16:54;71.50;;;10.10;;
4232;SDS011;2130;48.472;11.934;2022-09-09T06:19:27;73.47;;;9.60;;
4232;SDS011;2130;48.472;11.934;2022-09-09T06:21:57;72.33;;;10.07;;
4232;SDS011;2130;48.472;11.934;2022-09-09T06:24:27;72.60;;;10.50;;
4232;SDS011;2130;48.472;11.934;2022-09-09T06:26:57;73.57;;;9.30;;
4232;SDS011;2130;48.472;11.934;2022-09-09T06:29:29;74.57;;;9.90;;
4232;SDS011;2130;48.472;11.934;2022-09-09T06:31:58;74.83;;;9.80;;
4232;SDS011;2130;48.472;11.934;2022-09-09T06:34:27;72.17;;;9.67;;
4232;SDS011;2130;48.472;11.934;2022-09-09T06:36:57;72.47;;;10.00;;
4232;SDS011;2130;48.472;11.934;2022-09-09T06:39:32;73.97;;;10.50;;
4232;SDS011;2130;48.472;11.934;2022-09-09T06:42:00;75.80;;;10.57;;
4232;SDS011;2130;48.472;11.934;2022-09-09T06:44:53;71.77;;;9.13;;
4232;SDS011;2130;48.472;11.934;2022-09-09T06:47:37;73.30;;;9.30;;
4232;SDS011;2130;48.472;11.934;2022-09-09T06:50:05;71.27;;;10.10;;
4232;SDS011;2130;48.472;11.934;2022-09-09T06:52:35;73.50;;;9.90;;
4232;SDS011;2130;48.472;11.934;2022-09-09T06:55:04;72.90;;;10.30;;
4232;SDS011;2130;48.472;11.934;2022-09-09T06:57:33;76.50;;;10.30;;
4232;SDS011;2130;48.472;11.934;2022-09-09T07:00:08;72.70;;;10.10;;
4232;SDS011;2130;48.472;11.934;2022-09-09T07:02:40;72.40;;;8.03;;
4232;SDS011;2130;48.472;11.934;2022-09-09T07:05:09;71.67;;;10.00;;
4232;SDS011;2130;48.472;11.934;2022-09-09T07:07:39;75.33;;;8.90;;
4232;SDS011;2130;48.472;11.934;2022-09-09T07:10:09;72.03;;;10.37;;
4232;SDS011;2130;48.472;11.934;2022-09-09T07:12:37;75.33;;;9.30;;
4232;SDS011;2130;48.472;11.934;2022-09-09T07:15:09;74.00;;;8.87;;
4232;SDS011;2130;48.472;11.934;2022-09-09T07:17:42;71.27;;;8.43;;
4232;SDS011;2130;48.472;11.934;2022-09-09T07:20:10;75.37;;;10.10;;
4232;SDS011;2130;48.472;11.934;2022-09-09T07:22:39;69.20;;;7.37;;
4232;SDS011;2130;48.472;11.934;2022-09-09T07:25:08;72.33;;;8.30;;
4232;SDS011;2130;48.472;11.934;2022-09-09T07:27:37;71.30;;;8.77;;
4232;SDS011;2130;48.472;11.934;2022-09-09T07:30:05;79.18;;;13.27;;
4232;SDS011;2130;48.472;11.934;2022-09-09T07:32:34;74.93;;;9.63;;
4232;SDS011;2130;48.472;11.934;2022-09-09T07:35:04;73.80;;;8.40;;
4232;SDS011;2130;48.472;11.934;2022-09-09T07:37:35;72.90;;;9.00;;
4232;SDS011;2130;48.472;11.934;2022-09-09T07:40:04;72.90;;;8.93;;
4232;SDS011;2130;48.472;11.934;2022-09-09T07:42:33;72.43;;;9.87;;
4232;SDS011;2130;48.472;11.934;2022-09-09T07:45:02;74.57;;;9.87;;
4232;SDS011;2130;48.472;11.934;2022-09-09T07:47:32;75.40;;;11.33;;
4232;SDS011;2130;48.472;11.934;2022-09-09T07:50:01;74.07;;;11.77;;
4232;SDS011;2130;48.472;11.934;2022-09-09T07:52:32;73.20;;;11.20;;
4232;SDS011;2130;48.472;11.934;2022-09-09T07:55:04;71.77;;;8.80;;
4232;SDS011;2130;48.472;11.934;2022-09-09T07:57:33;75.07;;;10.53;;
4232;SDS011;2130;48.472;11.934;2022-09-09T08:00:02;73.07;;;10.00;;
4232;SDS011;2130;48.472;11.934;2022-09-09T08:02:37;72.60;;;10.50;;
4232;SDS011;2130;48.472;11.934;2022-09-09T08:05:07;71.57;;;8.37;;
4232;SDS011;2130;48.472;11.934;2022-09-09T08:07:39;72.57;;;8.40;;
4232;SDS011;2130;48.472;11.934;2022-09-09T08:10:07;72.27;;;8.97;;
4232;SDS011;2130;48.472;11.934;2022-09-09T08:12:38;74.40;;;9.20;;
4232;SDS011;2130;48.472;11.934;2022-09-09T08:15:21;73.10;;;8.97;;
4232;SDS011;2130;48.472;11.934;2022-09-09T08:17:49;71.07;;;8.30;;
4232;SDS011;2130;48.472;11.934;2022-09-09T08:20:18;71.77;;;8.73;;
4232;SDS011;2130;48.472;11.934;2022-09-09T08:22:48;72.43;;;9.77;;
4232;SDS011;2130;48.472;11.934;2022-09-09T08:25:18;71.27;;;9.17;;
4232;SDS011;2130;48.472;11.934;2022-09-09T08:27:46;72.07;;;9.37;;
4232;SDS011;2130;48.472;11.934;2022-09-09T08:30:14;73.70;;;9.50;;
4232;SDS011;2130;48.472;11.934;2022-09-09T08:32:42;72.60;;;9.30;;
4232;SDS011;2130;48.472;11.934;2022-09-09T08:35:12;71.60;;;8.93;;
4232;SDS011;2130;48.472;11.934;2022-09-09T08:37:41;71.63;;;9.10;;
4232;SDS011;2130;48.472;11.934;2022-09-09T08:40:10;72.73;;;9.50;;
4232;SDS011;2130;48.472;11.934;2022-09-09T08:42:46;73.37;;;7.47;;
4232;SDS011;2130;48.472;11.934;2022-09-09T08:48:14;71.97;;;7.70;;
4232;SDS011;2130;48.472;11.934;2022-09-09T08:50:51;70.33;;;7.20;;
4232;SDS011;2130;48.472;11.934;2022-09-09T08:53:27;71.13;;;7.40;;
4232;SDS011;2130;48.472;11.934;2022-09-09T08:55:59;75.17;;;7.60;;
4232;SDS011;2130;48.472;11.934;2022-09-09T08:58:40;70.73;;;7.17;;
4232;SDS011;2130;48.472;11.934;2022-09-09T09:01:17;86.47;;;19.77;;
4232;SDS011;2130;48.472;11.934;2022-09-09T09:04:02;70.27;;;6.77;;
4232;SDS011;2130;48.472;11.934;2022-09-09T09:06:39;72.93;;;6.10;;
4232;SDS011;2130;48.472;11.934;2022-09-09T09:09:15;70.37;;;6.30;;
4232;SDS011;2130;48.472;11.934;2022-09-09T09:11:49;69.37;;;5.83;;
4232;SDS011;2130;48.472;11.934;2022-09-09T09:14:20;71.37;;;6.20;;
4232;SDS011;2130;48.472;11.934;2022-09-09T09:16:53;70.60;;;6.10;;
4232;SDS011;2130;48.472;11.934;2022-09-09T09:19:27;68.90;;;5.77;;
4232;SDS011;2130;48.472;11.934;2022-09-09T09:21:58;69.20;;;5.50;;
4232;SDS011;2130;48.472;11.934;2022-09-09T09:24:31;68.50;;;5.67;;
4232;SDS011;2130;48.472;11.934;2022-09-09T09:27:10;69.80;;;5.60;;
4232;SDS011;2130;48.472;11.934;2022-09-09T09:29:44;68.50;;;5.27;;
4232;SDS011;2130;48.472;11.934;2022-09-09T09:32:33;71.97;;;5.70;;
4232;SDS011;2130;48.472;11.934;2022-09-09T09:35:06;68.43;;;5.83;;
4232;SDS011;2130;48.472;11.934;2022-09-09T09:37:37;69.40;;;5.57;;
4232;SDS011;2130;48.472;11.934;2022-09-09T09:40:31;68.40;;;5.77;;
4232;SDS011;2130;48.472;11.934;2022-09-09T09:43:02;74.27;;;6.07;;
4232;SDS011;2130;48.472;11.934;2022-09-09T09:45:35;69.17;;;6.07;;
4232;SDS011;2130;48.472;11.934;2022-09-09T09:48:31;71.60;;;6.20;;
4232;SDS011;2130;48.472;11.934;2022-09-09T09:51:08;69.80;;;5.67;;
4232;SDS011;2130;48.472;11.934;2022-09-09T09:53:38;68.57;;;5.37;;
4232;SDS011;2130;48.472;11.934;2022-09-09T09:56:10;69.60;;;5.60;;
4232;SDS011;2130;48.472;11.934;2022-09-09T09:58:48;69.03;;;5.60;;
4232;SDS011;2130;48.472;11.934;2022-09-09T10:01:21;68.17;;;5.67;;
4232;SDS011;2130;48.472;11.934;2022-09-09T10:03:52;75.50;;;5.57;;
4232;SDS011;2130;48.472;11.934;2022-09-09T10:06:29;69.33;;;5.73;;
4232;SDS011;2130;48.472;11.934;2022-09-09T10:08:58;68.30;;;5.43;;
4232;SDS011;2130;48.472;11.934;2022-09-09T10:11:30;67.17;;;4.60;;
4232;SDS011;2130;48.472;11.934;2022-09-09T10:14:11;68.70;;;5.10;;
4232;SDS011;2130;48.472;11.934;2022-09-09T10:16:48;68.53;;;4.63;;
4232;SDS011;2130;48.472;11.934;2022-09-09T10:19:27;67.00;;;4.63;;
4232;SDS011;2130;48.472;11.934;2022-09-09T10:22:01;69.10;;;5.07;;
4232;SDS011;2130;48.472;11.934;2022-09-09T10:24:40;69.60;;;5.00;;
4232;SDS011;2130;48.472;11.934;2022-09-09T10:27:28;67.57;;;4.70;;
4232;SDS011;2130;48.472;11.934;2022-09-09T10:30:06;67.97;;;4.80;;
4232;SDS011;2130;48.472;11.934;2022-09-09T10:32:45;70.30;;;5.10;;
4232;SDS011;2130;48.472;11.934;2022-09-09T10:35:20;67.33;;;4.47;;
4232;SDS011;2130;48.472;11.934;2022-09-09T10:38:00;67.57;;;4.70;;
4232;SDS011;2130;48.472;11.934;2022-09-09T10:40:38;67.50;;;4.70;;
4232;SDS011;2130;48.472;11.934;2022-09-09T10:43:12;71.90;;;5.37;;
4232;SDS011;2130;48.472;11.934;2022-09-09T10:45:49;67.20;;;4.70;;
4232;SDS011;2130;48.472;11.934;2022-09-09T10:48:31;69.30;;;5.10;;
4232;SDS011;2130;48.472;11.934;2022-09-09T10:51:11;67.97;;;5.20;;
4232;SDS011;2130;48.472;11.934;2022-09-09T10:53:46;67.87;;;4.93;;
4232;SDS011;2130;48.472;11.934;2022-09-09T10:56:21;69.30;;;5.10;;
4232;SDS011;2130;48.472;11.934;2022-09-09T10:58:52;68.13;;;5.13;;
4232;SDS011;2130;48.472;11.934;2022-09-09T11:01:25;76.40;;;5.20;;
4232;SDS011;2130;48.472;11.934;2022-09-09T11:03:57;67.60;;;5.00;;
4232;SDS011;2130;48.472;11.934;2022-09-09T11:06:29;68.67;;;4.77;;
4232;SDS011;2130;48.472;11.934;2022-09-09T11:09:00;69.07;;;5.23;;
4232;SDS011;2130;48.472;11.934;2022-09-09T11:11:30;69.30;;;5.00;;
4232;SDS011;2130;48.472;11.934;2022-09-09T11:14:02;68.30;;;4.77;;
4232;SDS011;2130;48.472;11.934;2022-09-09T11:16:36;73.30;;;5.27;;
4232;SDS011;2130;48.472;11.934;2022-09-09T11:19:11;68.67;;;4.90;;
4232;SDS011;2130;48.472;11.934;2022-09-09T11:21:43;69.40;;;4.87;;
4232;SDS011;2130;48.472;11.934;2022-09-09T11:24:14;67.50;;;4.53;;
4232;SDS011;2130;48.472;11.934;2022-09-09T11:26:46;70.10;;;4.27;;
4232;SDS011;2130;48.472;11.934;2022-09-09T11:29:31;74.20;;;4.70;;
4232;SDS011;2130;48.472;11.934;2022-09-09T11:32:26;68.07;;;4.00;;
4232;SDS011;2130;48.472;11.934;2022-09-09T11:35:17;68.50;;;4.10;;
4232;SDS011;2130;48.472;11.934;2022-09-09T11:38:01;68.17;;;4.33;;
4232;SDS011;2130;48.472;11.934;2022-09-09T11:40:37;69.60;;;4.10;;
4232;SDS011;2130;48.472;11.934;2022-09-09T11:43:08;68.37;;;4.23;;
4232;SDS011;2130;48.472;11.934;2022-09-09T11:45:39;67.27;;;4.13;;
4232;SDS011;2130;48.472;11.934;2022-09-09T11:48:21;68.00;;;3.83;;
4232;SDS011;2130;48.472;11.934;2022-09-09T11:50:59;67.73;;;3.80;;
4232;SDS011;2130;48.472;11.934;2022-09-09T11:53:29;68.83;;;3.97;;
4232;SDS011;2130;48.472;11.934;2022-09-09T11:56:04;68.47;;;4.30;;
4232;SDS011;2130;48.472;11.934;2022-09-09T11:58:36;69.00;;;4.30;;
4232;SDS011;2130;48.472;11.934;2022-09-09T12:01:14;68.27;;;4.40;;
4232;SDS011;2130;48.472;11.934;2022-09-09T12:03:45;67.37;;;4.03;;
4232;SDS011;2130;48.472;11.934;2022-09-09T12:06:17;67.70;;;3.63;;
4232;SDS011;2130;48.472;11.934;2022-09-09T12:08:49;67.50;;;3.90;;
4232;SDS011;2130;48.472;11.934;2022-09-09T12:11:24;67.63;;;3.87;;
4232;SDS011;2130;48.472;11.934;2022-09-09T12:13:54;70.70;;;3.93;;
4232;SDS011;2130;48.472;11.934;2022-09-09T12:16:32;69.87;;;4.40;;
4232;SDS011;2130;48.472;11.934;2022-09-09T12:19:12;68.43;;;3.80;;
4232;SDS011;2130;48.472;11.934;2022-09-09T12:21:44;68.53;;;4.07;;
4232;SDS011;2130;48.472;11.934;2022-09-09T12:24:17;67.70;;;3.70;;
4232;SDS011;2130;48.472;11.934;2022-09-09T12:26:50;70.90;;;4.20;;
4232;SDS011;2130;48.472;11.934;2022-09-09T12:29:25;68.50;;;4.00;;
4232;SDS011;2130;48.472;11.934;2022-09-09T12:31:57;71.13;;;3.80;;
4232;SDS011;2130;48.472;11.934;2022-09-09T12:34:31;67.97;;;3.63;;
4232;SDS011;2130;48.472;11.934;2022-09-09T12:37:04;67.70;;;3.73;;
4232;SDS011;2130;48.472;11.934;2022-09-09T12:39:37;67.50;;;3.40;;
4232;SDS011;2130;48.472;11.934;2022-09-09T12:42:15;68.00;;;3.67;;
4232;SDS011;2130;48.472;11.934;2022-09-09T12:44:53;70.27;;;3.50;;
4232;SDS011;2130;48.472;11.934;2022-09-09T12:47:25;67.87;;;3.43;;
4232;SDS011;2130;48.472;11.934;2022-09-09T12:50:10;68.00;;;3.23;;
4232;SDS011;2130;48.472;11.934;2022-09-09T12:52:43;66.60;;;3.13;;
4232;SDS011;2130;48.472;11.934;2022-09-09T12:55:16;68.17;;;3.90;;
4232;SDS011;2130;48.472;11.934;2022-09-09T13:00:48;67.93;;;3.80;;
4232;SDS011;2130;48.472;11.934;2022-09-09T13:03:19;67.40;;;3.60;;
4232;SDS011;2130;48.472;11.934;2022-09-09T13:05:50;67.53;;;3.90;;
4232;SDS011;2130;48.472;11.934;2022-09-09T13:08:19;67.67;;;3.70;;
4232;SDS011;2130;48.472;11.934;2022-09-09T13:10:49;67.30;;;3.77;;
4232;SDS011;2130;48.472;11.934;2022-09-09T13:13:26;67.27;;;3.77;;
4232;SDS011;2130;48.472;11.934;2022-09-09T13:15:56;67.67;;;3.40;;
4232;SDS011;2130;48.472;11.934;2022-09-09T13:18:27;67.10;;;3.40;;
4232;SDS011;2130;48.472;11.934;2022-09-09T13:20:58;67.00;;;3.30;;
4232;SDS011;2130;48.472;11.934;2022-09-09T13:23:26;67.40;;;3.80;;
4232;SDS011;2130;48.472;11.934;2022-09-09T13:25:56;66.97;;;3.40;;
4232;SDS011;2130;48.472;11.934;2022-09-09T13:28:26;67.17;;;3.50;;
4232;SDS011;2130;48.472;11.934;2022-09-09T13:31:00;67.57;;;3.33;;
4232;SDS011;2130;48.472;11.934;2022-09-09T13:33:30;67.13;;;3.37;;
4232;SDS011;2130;48.472;11.934;2022-09-09T13:36:02;67.60;;;3.00;;
4232;SDS011;2130;48.472;11.934;2022-09-09T13:38:33;68.60;;;3.33;;
4232;SDS011;2130;48.472;11.934;2022-09-09T13:41:04;66.90;;;3.33;;
4232;SDS011;2130;48.472;11.934;2022-09-09T13:43:34;67.57;;;2.90;;
4232;SDS011;2130;48.472;11.934;2022-09-09T13:46:06;66.80;;;2.87;;
4232;SDS011;2130;48.472;11.934;2022-09-09T13:48:55;66.10;;;2.73;;
4232;SDS011;2130;48.472;11.934;2022-09-09T13:51:35;66.77;;;3.00;;
4232;SDS011;2130;48.472;11.934;2022-09-09T13:54:04;66.47;;;2.73;;
4232;SDS011;2130;48.472;11.934;2022-09-09T13:56:33;66.30;;;2.77;;
4232;SDS011;2130;48.472;11.934;2022-09-09T13:59:02;66.87;;;2.73;;
4232;SDS011;2130;48.472;11.934;2022-09-09T14:01:30;67.33;;;2.83;;
4232;SDS011;2130;48.472;11.934;2022-09-09T14:03:59;67.37;;;2.77;;
4232;SDS011;2130;48.472;11.934;2022-09-09T14:06:29;67.30;;;2.90;;
4232;SDS011;2130;48.472;11.934;2022-09-09T14:09:00;68.30;;;3.00;;
4232;SDS011;2130;48.472;11.934;2022-09-09T14:11:28;66.37;;;2.80;;
4232;SDS011;2130;48.472;11.934;2022-09-09T14:13:56;66.93;;;2.80;;
4232;SDS011;2130;48.472;11.934;2022-09-09T14:16:24;66.90;;;2.70;;
4232;SDS011;2130;48.472;11.934;2022-09-09T14:18:54;68.27;;;2.90;;
4232;SDS011;2130;48.472;11.934;2022-09-09T14:21:23;66.87;;;2.67;;
4232;SDS011;2130;48.472;11.934;2022-09-09T14:23:54;66.57;;;2.80;;
4232;SDS011;2130;48.472;11.934;2022-09-09T14:26:25;68.00;;;3.00;;
4232;SDS011;2130;48.472;11.934;2022-09-09T14:28:55;66.97;;;2.80;;
4232;SDS011;2130;48.472;11.934;2022-09-09T14:31:24;66.23;;;2.80;;
4232;SDS011;2130;48.472;11.934;2022-09-09T14:33:52;68.20;;;3.00;;
4232;SDS011;2130;48.472;11.934;2022-09-09T14:36:20;69.30;;;3.00;;
4232;SDS011;2130;48.472;11.934;2022-09-09T14:38:49;67.10;;;2.70;;
4232;SDS011;2130;48.472;11.934;2022-09-09T14:41:19;66.47;;;2.77;;
4232;SDS011;2130;48.472;11.934;2022-09-09T14:43:50;66.40;;;2.70;;
4232;SDS011;2130;48.472;11.934;2022-09-09T14:46:20;66.57;;;2.87;;
4232;SDS011;2130;48.472;11.934;2022-09-09T14:48:49;66.30;;;2.70;;
4232;SDS011;2130;48.472;11.934;2022-09-09T14:51:18;66.90;;;2.67;;
4232;SDS011;2130;48.472;11.934;2022-09-09T14:53:50;67.17;;;2.97;;
4232;SDS011;2130;48.472;11.934;2022-09-09T14:56:20;69.67;;;2.50;;
4232;SDS011;2130;48.472;11.934;2022-09-09T14:58:52;66.37;;;2.50;;
4232;SDS011;2130;48.472;11.934;2022-09-09T15:01:21;66.07;;;2.40;;
4232;SDS011;2130;48.472;11.934;2022-09-09T15:03:50;66.20;;;2.50;;
4232;SDS011;2130;48.472;11.934;2022-09-09T15:06:19;66.83;;;2.60;;
4232;SDS011;2130;48.472;11.934;2022-09-09T15:08:49;65.87;;;2.60;;
4232;SDS011;2130;48.472;11.934;2022-09-09T15:11:18;66.40;;;2.60;;
4232;SDS011;2130;48.472;11.934;2022-09-09T15:13:47;66.23;;;2.73;;
4232;SDS011;2130;48.472;11.934;2022-09-09T15:16:21;66.00;;;2.53;;
4232;SDS011;2130;48.472;11.934;2022-09-09T15:18:51;66.20;;;2.53;;
4232;SDS011;2130;48.472;11.934;2022-09-09T15:24:13;65.80;;;2.40;;
4232;SDS011;2130;48.472;11.934;2022-09-09T15:26:43;66.27;;;2.53;;